메인 페이지
METAR-TAF:

METAR-TAF

공항 :

조지타운, 어센션 섬

위도: 07-58S, 경도: 014-24W, 고도: 86m

METAR: 누락

시각: 10:30 (10:30 UTC)

예보

예보는 2 시간 55분 전, 07:35시(UTC)에 발표되었습니다.
예보 대상 시간: 19일 09시부터 20일 03시까지 (UTC)
남동12kt
시정 10km 이상
고도 2000ft 상공 구름 조금
고도 3800ft 상공 구름 보통
확률 40% :
일시적
19일 09시부터 19일 11시까지 (UTC)
고도 1800ft 상공 구름 보통
확률 30% :
일시적
19일 17시부터 20일 03시까지 (UTC)
시정: 5000m
고도 1400ft 상공 구름 보통
고도 2000ft 상공 구름 많음
약한소나기

TAF: FHAW 190735Z 1909/2003 14012KT 9999 FEW020 SCT038 PROB40 TEMPO 1909/1911 SCT018 PROB30 TEMPO 1917/2003 5000 -SHRA SCT014 BKN020

4,000개 이상의 공항 관측 자료 및 예보 (METAR 및 TAF 보고).

지도상에서 검색 가능한 기상관측소가 노란 점과 빨간 점으로 표시되어 있습니다.

기상관측소 명을 보려면 표시 위로 마우스를 이동하세요.

날씨 관측과 예보를 보려면 클릭하세요.

지도 변경 : 확대하려면 엑스 표시가 있는 녹색 버튼, 축소하려면 빼기 표시가 있는 녹색 버튼, 다음 페이지의 지도를 보려면 녹색 화살표를 클릭하세요.


METAR-TAF: